Time;durP1;ratioP1;P1;durP2;ratioP2;P2;SDS_P1;SDS_P2;PMS_P1;PMS_P2;Temp;Humidity;BMP_temperature;BMP_pressure;BME280_temperature;BME280_humidity;BME280_pressure;Samples;Min_cycle;Max_cycle;Signal;HPM_P1;HPM_P2
2023/01/05 00:00:47;;;;;;;;;;;21.10;44.90;;;;;;5052369;28;19920;-64
2023/01/05 00:03:14;;;;;;;;;;;21.10;44.90;;;;;;5051634;28;20019;-64
2023/01/05 00:05:41;;;;;;;;;;;21.10;44.90;;;;;;5054544;28;20019;-64
2023/01/05 00:08:08;;;;;;;;;;;21.10;44.80;;;;;;5053836;28;20015;-64
2023/01/05 00:24:33;;;;;;;;;;;21.00;44.80;;;;;;5076732;28;20056;-65
2023/01/05 00:27:00;;;;;;;;;;;21.00;44.90;;;;;;5076464;28;20337;-64
2023/01/05 00:29:27;;;;;;;;;;;21.00;44.80;;;;;;5075859;28;19920;-64
2023/01/05 00:31:54;;;;;;;;;;;21.00;44.80;;;;;;5075778;28;19927;-64
2023/01/05 00:34:21;;;;;;;;;;;21.00;44.80;;;;;;5076284;28;19998;-65
2023/01/05 00:36:48;;;;;;;;;;;21.00;44.80;;;;;;5075734;28;19934;-65
2023/01/05 00:39:15;;;;;;;;;;;21.00;44.80;;;;;;5075062;28;19921;-67
2023/01/05 00:41:42;;;;;;;;;;;21.00;44.80;;;;;;5076326;28;19926;-64
2023/01/05 00:44:09;;;;;;;;;;;21.00;44.80;;;;;;5075921;28;20483;-65
2023/01/05 00:46:36;;;;;;;;;;;21.00;44.80;;;;;;5074384;28;19920;-64
2023/01/05 00:49:03;;;;;;;;;;;21.00;44.80;;;;;;5075162;28;19971;-64
2023/01/05 00:51:30;;;;;;;;;;;21.00;44.80;;;;;;5074728;28;20011;-64
2023/01/05 00:53:57;;;;;;;;;;;21.00;44.80;;;;;;5074494;28;20015;-64
2023/01/05 00:56:24;;;;;;;;;;;21.00;44.80;;;;;;5076187;28;19920;-65
2023/01/05 00:58:54;;;;;;;;;;;21.00;44.80;;;;;;5074529;28;20399;-64
2023/01/05 01:01:21;;;;;;;;;;;21.00;44.80;;;;;;5075086;28;19931;-64
2023/01/05 01:03:48;;;;;;;;;;;21.00;44.80;;;;;;5073969;28;19920;-64
2023/01/05 01:06:15;;;;;;;;;;;21.00;44.80;;;;;;5074687;28;19971;-64
2023/01/05 01:08:42;;;;;;;;;;;21.00;44.80;;;;;;5073514;28;19927;-64
2023/01/05 01:11:09;;;;;;;;;;;21.00;44.80;;;;;;5074660;28;19921;-64
2023/01/05 01:13:37;;;;;;;;;;;20.90;44.80;;;;;;5074718;28;19927;-65
2023/01/05 01:16:06;;;;;;;;;;;21.00;44.80;;;;;;5073138;28;20000;-64
2023/01/05 01:18:33;;;;;;;;;;;21.00;44.80;;;;;;5074368;28;19925;-64
2023/01/05 01:21:00;;;;;;;;;;;21.00;44.80;;;;;;5074133;28;19920;-64
2023/01/05 01:23:27;;;;;;;;;;;21.00;44.80;;;;;;5057433;28;19970;-65
2023/01/05 01:25:55;;;;;;;;;;;20.90;44.70;;;;;;5074099;28;20343;-64
2023/01/05 01:28:22;;;;;;;;;;;21.00;44.80;;;;;;5074827;28;19920;-64
2023/01/05 01:30:49;;;;;;;;;;;20.90;44.70;;;;;;5074283;28;20337;-64
2023/01/05 01:33:16;;;;;;;;;;;20.90;44.70;;;;;;5073840;28;19943;-64
2023/01/05 01:35:43;;;;;;;;;;;20.90;44.70;;;;;;5074109;28;19920;-65
2023/01/05 01:38:10;;;;;;;;;;;20.90;44.80;;;;;;5074268;28;20003;-64
2023/01/05 01:40:39;;;;;;;;;;;20.90;44.80;;;;;;5074891;28;19978;-64
2023/01/05 01:43:19;;;;;;;;;;;20.90;44.70;;;;;;5074512;28;20004;-64
2023/01/05 01:45:46;;;;;;;;;;;21.00;44.80;;;;;;5055693;28;20347;-64
2023/01/05 01:48:17;;;;;;;;;;;20.90;44.80;;;;;;5074867;28;20429;-64
2023/01/05 01:50:47;;;;;;;;;;;21.00;44.80;;;;;;5074012;28;19927;-64
2023/01/05 01:53:15;;;;;;;;;;;21.00;44.80;;;;;;5072555;28;19920;-64
2023/01/05 01:55:43;;;;;;;;;;;20.90;44.70;;;;;;5073115;28;19920;-64
2023/01/05 01:58:12;;;;;;;;;;;21.00;44.80;;;;;;5073847;28;19999;-64
2023/01/05 02:00:40;;;;;;;;;;;20.90;44.70;;;;;;5074193;28;19964;-64
2023/01/05 02:03:07;;;;;;;;;;;20.90;44.70;;;;;;5074363;28;20373;-64
2023/01/05 02:05:36;;;;;;;;;;;21.00;44.70;;;;;;5074331;28;19921;-65
2023/01/05 02:08:03;;;;;;;;;;;21.00;44.70;;;;;;5073887;28;19921;-64
2023/01/05 02:10:36;;;;;;;;;;;21.00;44.70;;;;;;5072808;28;20019;-65
2023/01/05 02:13:12;;;;;;;;;;;21.00;44.70;;;;;;5073914;28;19966;-64
2023/01/05 02:15:59;;;;;;;;;;;21.00;44.70;;;;;;5071334;28;19920;-64
2023/01/05 02:18:46;;;;;;;;;;;21.00;44.70;;;;;;5072268;28;20011;-64
2023/01/05 02:21:26;;;;;;;;;;;20.90;44.60;;;;;;5072901;28;19920;-64
2023/01/05 02:24:12;;;;;;;;;;;20.90;44.60;;;;;;5073941;28;19927;-64
2023/01/05 02:26:56;;;;;;;;;;;20.90;44.60;;;;;;5072378;28;20291;-65
2023/01/05 02:29:43;;;;;;;;;;;20.90;44.60;;;;;;5072838;28;20007;-64
2023/01/05 02:32:21;;;;;;;;;;;20.90;44.60;;;;;;5059116;28;19974;-64
2023/01/05 02:35:07;;;;;;;;;;;20.90;44.60;;;;;;5073520;28;19927;-64
2023/01/05 02:37:40;;;;;;;;;;;20.90;44.60;;;;;;5072368;28;19942;-66
2023/01/05 02:40:09;;;;;;;;;;;20.90;44.60;;;;;;5073095;28;19967;-64
2023/01/05 02:42:37;;;;;;;;;;;20.90;44.60;;;;;;5072473;28;19920;-65
2023/01/05 02:45:06;;;;;;;;;;;20.90;44.60;;;;;;5072558;28;19983;-64
2023/01/05 02:47:37;;;;;;;;;;;20.90;44.60;;;;;;5073028;28;19924;-64
2023/01/05 02:50:11;;;;;;;;;;;20.90;44.60;;;;;;5072456;28;20435;-64
2023/01/05 02:52:49;;;;;;;;;;;20.90;44.60;;;;;;5067005;28;19960;-65
2023/01/05 02:55:19;;;;;;;;;;;20.90;44.60;;;;;;5073137;28;19920;-64
2023/01/05 02:57:51;;;;;;;;;;;20.90;44.60;;;;;;5073751;28;19962;-64
2023/01/05 03:00:21;;;;;;;;;;;20.90;44.60;;;;;;5073376;28;19920;-64
2023/01/05 03:02:50;;;;;;;;;;;20.90;44.60;;;;;;5072708;28;20327;-65
2023/01/05 03:05:22;;;;;;;;;;;20.90;44.60;;;;;;5054982;28;20419;-64
2023/01/05 03:07:49;;;;;;;;;;;20.90;44.60;;;;;;5051721;28;19921;-64
2023/01/05 03:16:00;;;;;;;;;;;20.90;44.60;;;;;;5071572;28;19930;-64
2023/01/05 03:18:29;;;;;;;;;;;20.90;44.50;;;;;;5090974;28;19926;-64
2023/01/05 03:20:56;;;;;;;;;;;20.90;44.60;;;;;;5092813;28;19959;-64
2023/01/05 03:37:56;;;;;;;;;;;20.90;44.50;;;;;;5092699;28;19967;-65
2023/01/05 03:40:28;;;;;;;;;;;20.90;44.50;;;;;;5096930;28;20011;-64
2023/01/05 03:42:55;;;;;;;;;;;20.90;44.50;;;;;;5096771;28;19920;-64
2023/01/05 03:45:24;;;;;;;;;;;20.90;44.50;;;;;;5097238;28;20348;-64
2023/01/05 03:47:51;;;;;;;;;;;20.90;44.50;;;;;;5095772;28;19998;-64
2023/01/05 03:50:18;;;;;;;;;;;20.90;44.50;;;;;;5092983;28;19963;-64
2023/01/05 03:52:45;;;;;;;;;;;20.90;44.50;;;;;;5095087;28;20464;-64
2023/01/05 03:55:12;;;;;;;;;;;20.90;44.50;;;;;;5096632;28;19920;-64
2023/01/05 03:57:39;;;;;;;;;;;20.90;44.50;;;;;;5094520;28;19920;-64
2023/01/05 04:00:06;;;;;;;;;;;20.90;44.50;;;;;;5096916;28;19979;-64
2023/01/05 04:02:33;;;;;;;;;;;20.90;44.50;;;;;;5096099;28;19924;-64
2023/01/05 04:05:00;;;;;;;;;;;20.90;44.50;;;;;;5095957;28;19924;-64
2023/01/05 04:07:27;;;;;;;;;;;20.90;44.50;;;;;;5096819;28;19925;-64
2023/01/05 04:09:54;;;;;;;;;;;20.90;44.50;;;;;;5094097;28;19931;-65
2023/01/05 04:12:21;;;;;;;;;;;20.90;44.50;;;;;;5094121;28;19920;-64
2023/01/05 04:14:48;;;;;;;;;;;20.90;44.50;;;;;;5080687;28;19920;-64
2023/01/05 04:17:14;;;;;;;;;;;20.90;44.50;;;;;;5065373;28;19920;-65
2023/01/05 04:19:41;;;;;;;;;;;20.90;44.40;;;;;;5081326;28;19927;-64
2023/01/05 04:22:08;;;;;;;;;;;20.90;44.40;;;;;;5095714;28;19958;-64
2023/01/05 04:24:35;;;;;;;;;;;20.90;44.40;;;;;;5096186;28;20014;-64
2023/01/05 04:27:02;;;;;;;;;;;20.90;44.40;;;;;;5087546;28;19978;-64
2023/01/05 04:29:29;;;;;;;;;;;20.90;44.50;;;;;;5096765;28;20302;-64
2023/01/05 04:31:56;;;;;;;;;;;20.90;44.40;;;;;;5083753;28;19927;-65
2023/01/05 04:34:23;;;;;;;;;;;20.90;44.40;;;;;;5060174;28;19959;-64
2023/01/05 04:36:50;;;;;;;;;;;20.90;44.40;;;;;;5095437;28;20386;-64
2023/01/05 04:39:17;;;;;;;;;;;20.90;44.40;;;;;;5095002;28;20010;-64
2023/01/05 04:41:44;;;;;;;;;;;20.90;44.40;;;;;;5096294;28;19955;-64
2023/01/05 04:44:11;;;;;;;;;;;20.90;44.40;;;;;;5096770;28;20013;-64
2023/01/05 04:46:38;;;;;;;;;;;20.90;44.40;;;;;;5096556;28;19959;-64
2023/01/05 04:49:05;;;;;;;;;;;20.90;44.40;;;;;;5095795;28;20007;-64
2023/01/05 04:51:32;;;;;;;;;;;20.90;44.40;;;;;;5086882;28;19931;-64
2023/01/05 04:53:59;;;;;;;;;;;20.90;44.40;;;;;;5095592;28;20010;-64
2023/01/05 04:56:26;;;;;;;;;;;20.90;44.40;;;;;;5094831;28;20361;-64
2023/01/05 04:58:53;;;;;;;;;;;20.80;44.30;;;;;;5095757;28;20023;-64
2023/01/05 05:01:20;;;;;;;;;;;20.90;44.40;;;;;;5093674;28;19920;-64
2023/01/05 05:03:47;;;;;;;;;;;20.90;44.40;;;;;;5094742;28;19974;-64
2023/01/05 05:06:16;;;;;;;;;;;20.90;44.40;;;;;;5094095;28;19924;-64
2023/01/05 05:08:43;;;;;;;;;;;20.90;44.30;;;;;;5095016;28;19963;-64
2023/01/05 05:11:10;;;;;;;;;;;20.80;44.30;;;;;;5093642;28;19924;-64
2023/01/05 05:13:37;;;;;;;;;;;20.80;44.30;;;;;;5073825;28;20012;-64
2023/01/05 05:16:04;;;;;;;;;;;20.80;44.30;;;;;;5074121;28;20380;-64
2023/01/05 05:18:31;;;;;;;;;;;20.80;44.30;;;;;;5073966;28;19920;-64
2023/01/05 05:20:58;;;;;;;;;;;20.80;44.30;;;;;;5074233;28;19921;-64
2023/01/05 05:23:25;;;;;;;;;;;20.80;44.30;;;;;;5092852;28;19920;-64
2023/01/05 05:25:52;;;;;;;;;;;20.80;44.30;;;;;;5079846;28;19929;-64
2023/01/05 05:28:20;;;;;;;;;;;20.80;44.30;;;;;;5054379;28;19921;-64
2023/01/05 05:30:47;;;;;;;;;;;20.80;44.30;;;;;;5053395;28;19997;-64
2023/01/05 05:33:14;;;;;;;;;;;20.80;44.30;;;;;;5071832;28;19970;-64
2023/01/05 05:35:41;;;;;;;;;;;20.80;44.30;;;;;;5093445;28;19955;-64
2023/01/05 05:38:08;;;;;;;;;;;20.80;44.20;;;;;;5092037;28;19955;-64
2023/01/05 05:40:36;;;;;;;;;;;20.80;44.00;;;;;;5091800;28;19969;-65
2023/01/05 05:43:03;;;;;;;;;;;20.80;44.00;;;;;;5069632;28;20015;-64
2023/01/05 05:45:30;;;;;;;;;;;20.80;44.00;;;;;;5072102;28;19967;-64
2023/01/05 05:48:00;;;;;;;;;;;20.80;44.00;;;;;;5054781;28;19921;-64
2023/01/05 05:50:27;;;;;;;;;;;20.80;44.00;;;;;;5052980;28;19921;-64
2023/01/05 05:52:54;;;;;;;;;;;20.70;44.00;;;;;;5077065;28;19926;-64
2023/01/05 05:55:21;;;;;;;;;;;20.80;44.00;;;;;;5093600;28;20407;-65
2023/01/05 05:57:48;;;;;;;;;;;20.80;43.90;;;;;;5067748;28;20022;-65
2023/01/05 06:00:15;;;;;;;;;;;20.80;43.90;;;;;;5063078;28;19926;-65
2023/01/05 06:02:42;;;;;;;;;;;20.80;43.80;;;;;;5084645;28;19934;-65
2023/01/05 06:05:09;;;;;;;;;;;20.80;43.70;;;;;;5079374;28;19928;-66
2023/01/05 06:07:36;;;;;;;;;;;20.80;43.70;;;;;;5093383;28;20010;-63
2023/01/05 06:10:04;;;;;;;;;;;20.90;43.70;;;;;;5093530;28;19966;-64
2023/01/05 06:12:31;;;;;;;;;;;20.90;43.70;;;;;;5093884;28;19927;-62
2023/01/05 06:14:58;;;;;;;;;;;20.90;43.60;;;;;;5093658;28;19972;-65
2023/01/05 06:17:25;;;;;;;;;;;20.90;43.70;;;;;;5094100;28;19919;-67
2023/01/05 06:19:52;;;;;;;;;;;20.90;43.70;;;;;;5078434;28;20349;-66
2023/01/05 06:22:19;;;;;;;;;;;20.90;44.10;;;;;;5077525;28;19920;-68
2023/01/05 06:24:46;;;;;;;;;;;21.00;44.20;;;;;;5069355;28;19924;-70
2023/01/05 06:27:13;;;;;;;;;;;21.10;44.40;;;;;;5072023;28;19924;-67
2023/01/05 06:29:40;;;;;;;;;;;21.10;44.40;;;;;;5074212;28;19920;-75
2023/01/05 06:32:07;;;;;;;;;;;21.10;44.30;;;;;;5071294;28;19982;-72
2023/01/05 06:34:34;;;;;;;;;;;21.20;44.40;;;;;;5072910;28;19929;-71
2023/01/05 06:37:01;;;;;;;;;;;21.20;44.40;;;;;;5074223;28;20018;-73
2023/01/05 06:39:28;;;;;;;;;;;21.30;44.40;;;;;;5062724;28;19967;-70
2023/01/05 06:41:56;;;;;;;;;;;21.30;44.40;;;;;;5056900;28;19920;-70
2023/01/05 06:44:23;;;;;;;;;;;21.40;44.50;;;;;;5067956;28;19924;-75
2023/01/05 06:46:50;;;;;;;;;;;21.40;44.40;;;;;;5059713;28;20308;-74
2023/01/05 06:49:17;;;;;;;;;;;21.40;44.40;;;;;;5038592;28;20030;-73
2023/01/05 06:51:44;;;;;;;;;;;21.50;44.40;;;;;;5055110;28;19928;-72
2023/01/05 06:54:11;;;;;;;;;;;21.50;44.40;;;;;;5063650;28;20016;-72
2023/01/05 06:56:38;;;;;;;;;;;21.60;44.20;;;;;;5055428;28;20007;-74
2023/01/05 06:59:05;;;;;;;;;;;21.60;43.90;;;;;;5057254;28;19960;-74
2023/01/05 07:01:32;;;;;;;;;;;21.60;43.70;;;;;;5035684;28;20529;-74
2023/01/05 07:03:59;;;;;;;;;;;21.70;43.60;;;;;;5058182;28;19920;-72
2023/01/05 07:06:27;;;;;;;;;;;21.70;43.50;;;;;;5055718;28;19924;-74
2023/01/05 07:08:54;;;;;;;;;;;21.70;43.40;;;;;;5058730;28;20327;-72
2023/01/05 07:11:21;;;;;;;;;;;21.80;43.40;;;;;;5055320;28;19966;-72
2023/01/05 07:13:49;;;;;;;;;;;21.80;43.30;;;;;;5062494;28;19928;-70
2023/01/05 07:16:17;;;;;;;;;;;21.80;43.10;;;;;;5064600;28;19960;-71
2023/01/05 07:18:45;;;;;;;;;;;21.90;43.00;;;;;;5063546;28;19975;-72
2023/01/05 07:21:12;;;;;;;;;;;21.90;43.00;;;;;;5067264;28;19975;-72
2023/01/05 07:23:39;;;;;;;;;;;21.90;42.90;;;;;;5048471;28;20034;-76
2023/01/05 07:26:07;;;;;;;;;;;22.00;43.10;;;;;;5065432;28;19966;-72
2023/01/05 07:28:35;;;;;;;;;;;22.10;43.30;;;;;;5067955;28;20396;-71
2023/01/05 07:31:02;;;;;;;;;;;22.10;43.40;;;;;;5071303;28;19924;-69
2023/01/05 07:33:29;;;;;;;;;;;22.10;43.70;;;;;;5072296;28;20012;-70
2023/01/05 07:36:05;;;;;;;;;;;22.20;43.70;;;;;;5066735;28;19935;-70
2023/01/05 07:38:32;;;;;;;;;;;22.20;43.70;;;;;;5068743;28;20027;-69
2023/01/05 07:41:00;;;;;;;;;;;22.30;43.40;;;;;;5075357;28;20015;-72
2023/01/05 07:43:27;;;;;;;;;;;22.30;43.40;;;;;;5071093;28;19925;-72
2023/01/05 07:46:00;;;;;;;;;;;22.30;43.10;;;;;;5070290;28;19928;-87
2023/01/05 07:48:28;;;;;;;;;;;22.40;43.10;;;;;;5067763;28;19920;-76
2023/01/05 07:51:00;;;;;;;;;;;22.40;43.10;;;;;;5052226;28;19928;-68
2023/01/05 07:53:28;;;;;;;;;;;22.50;43.20;;;;;;5074637;28;19920;-69
2023/01/05 07:55:57;;;;;;;;;;;22.50;43.00;;;;;;5071979;28;19927;-73
2023/01/05 07:58:24;;;;;;;;;;;22.50;42.70;;;;;;5056311;28;19929;-71
2023/01/05 08:00:52;;;;;;;;;;;22.50;42.50;;;;;;5072939;28;19974;-70
2023/01/05 08:03:20;;;;;;;;;;;22.60;42.50;;;;;;5050687;28;19920;-73
2023/01/05 08:05:47;;;;;;;;;;;22.60;42.40;;;;;;5066477;28;19924;-75
2023/01/05 08:08:14;;;;;;;;;;;22.60;42.30;;;;;;5064028;28;19983;-71
2023/01/05 08:10:50;;;;;;;;;;;22.70;42.40;;;;;;5048206;28;20051;-71
2023/01/05 08:16:04;;;;;;;;;;;22.70;42.40;;;;;;5069768;28;19928;-70
2023/01/05 08:18:31;;;;;;;;;;;22.70;42.30;;;;;;5066604;28;19924;-70
2023/01/05 08:21:03;;;;;;;;;;;22.70;42.30;;;;;;5064961;28;19946;-73
2023/01/05 08:23:31;;;;;;;;;;;22.80;42.40;;;;;;5067898;28;20324;-74
2023/01/05 08:26:07;;;;;;;;;;;22.80;42.30;;;;;;5066630;28;20049;-72
2023/01/05 08:28:34;;;;;;;;;;;22.80;42.30;;;;;;5067019;28;19921;-72
2023/01/05 08:31:03;;;;;;;;;;;22.80;42.30;;;;;;5061886;28;19920;-71
2023/01/05 08:33:30;;;;;;;;;;;22.90;42.30;;;;;;5045597;28;20322;-70
2023/01/05 08:35:57;;;;;;;;;;;22.90;42.30;;;;;;5059989;28;20403;-70
2023/01/05 08:38:24;;;;;;;;;;;22.90;42.20;;;;;;5048159;28;19939;-70
2023/01/05 08:40:51;;;;;;;;;;;22.90;42.20;;;;;;5031409;28;20631;-71
2023/01/05 08:43:18;;;;;;;;;;;23.00;42.30;;;;;;5046727;28;19929;-71
2023/01/05 08:45:49;;;;;;;;;;;23.00;42.20;;;;;;5048110;28;20392;-73
2023/01/05 08:48:16;;;;;;;;;;;23.00;42.10;;;;;;5064481;28;19924;-71
2023/01/05 08:50:43;;;;;;;;;;;23.10;42.10;;;;;;5065819;28;19921;-72
2023/01/05 08:53:10;;;;;;;;;;;23.10;42.00;;;;;;5071664;28;19970;-70
2023/01/05 08:55:37;;;;;;;;;;;23.10;41.90;;;;;;5062802;28;19925;-73
2023/01/05 08:58:07;;;;;;;;;;;23.10;41.90;;;;;;5059966;28;19920;-72
2023/01/05 09:00:34;;;;;;;;;;;23.20;41.80;;;;;;5064203;28;19978;-69
2023/01/05 09:03:01;;;;;;;;;;;23.20;41.70;;;;;;5061669;28;19920;-78
2023/01/05 09:05:28;;;;;;;;;;;23.30;41.60;;;;;;5043162;28;19951;-70
2023/01/05 09:07:56;;;;;;;;;;;23.30;41.50;;;;;;5063504;28;19971;-70
2023/01/05 09:10:23;;;;;;;;;;;23.30;41.30;;;;;;5062443;28;19974;-72
2023/01/05 09:12:50;;;;;;;;;;;23.40;41.20;;;;;;5061302;28;20019;-72
2023/01/05 09:15:17;;;;;;;;;;;23.40;41.10;;;;;;5068810;28;20319;-71
2023/01/05 09:17:44;;;;;;;;;;;23.40;41.00;;;;;;5057625;28;19968;-72
2023/01/05 09:20:11;;;;;;;;;;;23.50;41.00;;;;;;5062649;28;19990;-72
2023/01/05 09:22:39;;;;;;;;;;;23.50;41.10;;;;;;5062470;28;20303;-75
2023/01/05 09:25:06;;;;;;;;;;;23.60;41.20;;;;;;5040871;28;19929;-71
2023/01/05 09:27:33;;;;;;;;;;;23.60;41.30;;;;;;5064968;28;19931;-75
2023/01/05 09:30:00;;;;;;;;;;;23.60;41.30;;;;;;5066360;28;19928;-73
2023/01/05 09:32:27;;;;;;;;;;;23.60;41.30;;;;;;5068606;28;19921;-72
2023/01/05 09:34:54;;;;;;;;;;;23.70;41.30;;;;;;5069364;28;20292;-77
2023/01/05 09:37:21;;;;;;;;;;;23.80;41.10;;;;;;5066553;28;20350;-76
2023/01/05 09:39:49;;;;;;;;;;;23.70;41.10;;;;;;5061845;28;19920;-73
2023/01/05 09:42:18;;;;;;;;;;;23.80;41.20;;;;;;5062084;28;19986;-74
2023/01/05 09:44:51;;;;;;;;;;;23.80;41.10;;;;;;5069595;28;19935;-71
2023/01/05 09:47:35;;;;;;;;;;;23.90;41.10;;;;;;5061327;28;19928;-78
2023/01/05 09:50:04;;;;;;;;;;;23.90;40.90;;;;;;5059759;28;20368;-75
2023/01/05 09:52:31;;;;;;;;;;;23.90;40.90;;;;;;5069332;28;19959;-78
2023/01/05 09:55:14;;;;;;;;;;;23.90;40.80;;;;;;5065657;28;19928;-75
2023/01/05 09:57:45;;;;;;;;;;;24.00;40.80;;;;;;5042125;28;19925;-74
2023/01/05 10:00:14;;;;;;;;;;;24.00;40.70;;;;;;5062987;28;19939;-74
2023/01/05 10:03:01;;;;;;;;;;;24.10;40.80;;;;;;5066956;28;20006;-70
2023/01/05 10:05:29;;;;;;;;;;;24.10;40.80;;;;;;5066821;28;19920;-72
2023/01/05 10:07:59;;;;;;;;;;;24.10;40.80;;;;;;5059306;28;19920;-74
2023/01/05 10:13:01;;;;;;;;;;;24.10;40.60;;;;;;5061627;28;19924;-75
2023/01/05 10:13:35;;;;;;;;;;;24.10;40.60;;;;;;5059856;28;20422;-74
2023/01/05 10:16:03;;;;;;;;;;;24.10;40.40;;;;;;5060577;28;20011;-73
2023/01/05 10:18:33;;;;;;;;;;;24.20;40.50;;;;;;5060030;28;19931;-78
2023/01/05 10:21:19;;;;;;;;;;;24.20;41.00;;;;;;5065061;28;19986;-76
2023/01/05 10:23:52;;;;;;;;;;;24.20;40.40;;;;;;5062590;28;19927;-73
2023/01/05 10:26:25;;;;;;;;;;;24.20;40.30;;;;;;5061988;28;19999;-74
2023/01/05 10:28:58;;;;;;;;;;;24.30;40.30;;;;;;5059518;28;19967;-78
2023/01/05 10:31:46;;;;;;;;;;;24.30;40.30;;;;;;5061557;28;20398;-77
2023/01/05 10:34:22;;;;;;;;;;;24.30;40.20;;;;;;5061478;28;21941;-72
2023/01/05 10:36:59;;;;;;;;;;;24.30;40.20;;;;;;5062741;28;20015;-79
2023/01/05 10:39:55;;;;;;;;;;;24.30;40.20;;;;;;5057735;28;19990;-69
2023/01/05 10:42:42;;;;;;;;;;;24.30;40.10;;;;;;5046561;28;19944;-68
2023/01/05 10:45:12;;;;;;;;;;;24.30;40.20;;;;;;5062539;28;19973;-68
2023/01/05 10:47:40;;;;;;;;;;;24.40;40.20;;;;;;5062948;28;19924;-73
2023/01/05 10:50:25;;;;;;;;;;;24.40;40.30;;;;;;5059502;28;19968;-71
2023/01/05 10:52:52;;;;;;;;;;;24.40;40.30;;;;;;5059638;28;20330;-77
2023/01/05 10:55:20;;;;;;;;;;;24.40;40.40;;;;;;5066313;28;20429;-75
2023/01/05 10:57:48;;;;;;;;;;;24.40;40.30;;;;;;5060789;28;20296;-74
2023/01/05 11:00:19;;;;;;;;;;;24.40;40.20;;;;;;5066743;28;20540;-72
2023/01/05 11:02:51;;;;;;;;;;;24.40;40.70;;;;;;5063727;28;19942;-72
2023/01/05 11:05:22;;;;;;;;;;;24.40;40.20;;;;;;5060613;28;20401;-81
2023/01/05 11:07:51;;;;;;;;;;;24.40;40.20;;;;;;5067503;28;19928;-80
2023/01/05 11:10:20;;;;;;;;;;;24.40;40.30;;;;;;5041201;28;19929;-72
2023/01/05 11:12:51;;;;;;;;;;;24.40;40.30;;;;;;5065267;28;20424;-70
2023/01/05 11:15:19;;;;;;;;;;;24.40;40.30;;;;;;5046467;28;19956;-71
2023/01/05 11:17:46;;;;;;;;;;;24.40;40.30;;;;;;5063660;28;19929;-71
2023/01/05 11:20:14;;;;;;;;;;;24.40;40.30;;;;;;5067140;28;19960;-72
2023/01/05 11:22:46;;;;;;;;;;;24.30;40.10;;;;;;5048944;28;19942;-73
2023/01/05 11:25:30;;;;;;;;;;;24.40;40.00;;;;;;5061848;28;19950;-71
2023/01/05 11:28:15;;;;;;;;;;;24.30;40.00;;;;;;5071295;28;19956;-72
2023/01/05 11:30:53;;;;;;;;;;;24.30;40.00;;;;;;5063129;28;20128;-72
2023/01/05 11:33:25;;;;;;;;;;;24.30;40.00;;;;;;5065335;28;19981;-73
2023/01/05 11:35:52;;;;;;;;;;;24.30;40.00;;;;;;5059663;28;19928;-71
2023/01/05 11:38:21;;;;;;;;;;;24.30;40.00;;;;;;5059040;28;19947;-72
2023/01/05 11:40:48;;;;;;;;;;;24.20;39.90;;;;;;5060262;28;20284;-69
2023/01/05 11:43:16;;;;;;;;;;;24.20;39.90;;;;;;5058876;28;19939;-73
2023/01/05 11:45:48;;;;;;;;;;;24.20;39.80;;;;;;5061695;28;19920;-74
2023/01/05 11:48:20;;;;;;;;;;;24.20;39.90;;;;;;5059111;28;20020;-74
2023/01/05 11:50:49;;;;;;;;;;;24.20;39.90;;;;;;5058046;28;19974;-71
2023/01/05 11:53:36;;;;;;;;;;;24.20;40.00;;;;;;5064437;28;19925;-73
2023/01/05 11:56:23;;;;;;;;;;;24.20;40.00;;;;;;5057819;28;19924;-73
2023/01/05 11:58:53;;;;;;;;;;;24.20;39.90;;;;;;5058405;28;20011;-72
2023/01/05 12:01:40;;;;;;;;;;;24.20;40.00;;;;;;5045476;28;19983;-71
2023/01/05 12:04:27;;;;;;;;;;;24.20;40.20;;;;;;5074896;28;20383;-71
2023/01/05 12:07:03;;;;;;;;;;;24.20;40.00;;;;;;5066938;28;20261;-72
2023/01/05 12:09:35;;;;;;;;;;;24.10;39.90;;;;;;5061916;28;20369;-71
2023/01/05 12:12:22;;;;;;;;;;;24.20;39.90;;;;;;5062481;28;20499;-72
2023/01/05 12:15:09;;;;;;;;;;;24.20;39.80;;;;;;5064246;28;20469;-73
2023/01/05 12:17:56;;;;;;;;;;;24.20;40.00;;;;;;5056972;28;19994;-73
2023/01/05 12:20:33;;;;;;;;;;;24.20;40.20;;;;;;5063431;28;19966;-73
2023/01/05 12:23:15;;;;;;;;;;;24.20;40.20;;;;;;5064261;28;20388;-71
2023/01/05 12:25:53;;;;;;;;;;;24.20;40.20;;;;;;5061670;28;19920;-71
2023/01/05 12:28:37;;;;;;;;;;;24.20;40.20;;;;;;5043429;28;20469;-73
2023/01/05 12:31:28;;;;;;;;;;;24.20;40.20;;;;;;5064120;28;19927;-73
2023/01/05 12:34:21;;;;;;;;;;;24.20;40.20;;;;;;5068872;28;19920;-77
2023/01/05 12:37:01;;;;;;;;;;;24.20;40.20;;;;;;5065594;28;19978;-67
2023/01/05 12:39:39;;;;;;;;;;;24.20;40.30;;;;;;5043819;28;19931;-69
2023/01/05 12:42:27;;;;;;;;;;;24.30;40.40;;;;;;5056739;28;19924;-72
2023/01/05 12:45:14;;;;;;;;;;;24.30;40.40;;;;;;5068113;28;19920;-75
2023/01/05 12:48:00;;;;;;;;;;;24.30;40.30;;;;;;5064006;28;19927;-65
2023/01/05 12:50:42;;;;;;;;;;;24.30;40.30;;;;;;5063876;28;19934;-64
2023/01/05 12:53:20;;;;;;;;;;;24.30;40.20;;;;;;5064838;28;19925;-65
2023/01/05 12:55:49;;;;;;;;;;;24.20;39.90;;;;;;5063599;28;20012;-64
2023/01/05 12:58:21;;;;;;;;;;;24.30;39.90;;;;;;5065939;28;20027;-65
2023/01/05 13:00:48;;;;;;;;;;;24.20;39.90;;;;;;5062628;28;20027;-64
2023/01/05 13:03:32;;;;;;;;;;;24.20;39.80;;;;;;5064407;28;19924;-63
2023/01/05 13:06:03;;;;;;;;;;;24.20;39.80;;;;;;5062866;28;20019;-64
2023/01/05 13:08:37;;;;;;;;;;;24.20;39.90;;;;;;5068918;28;20391;-62
2023/01/05 13:11:24;;;;;;;;;;;24.20;39.90;;;;;;5067553;28;19960;-64
2023/01/05 13:13:54;;;;;;;;;;;24.10;39.90;;;;;;5066553;28;19932;-64
2023/01/05 13:16:27;;;;;;;;;;;24.10;39.90;;;;;;5065800;28;20015;-64
2023/01/05 13:19:04;;;;;;;;;;;24.10;39.90;;;;;;5065375;28;19920;-64
2023/01/05 13:21:32;;;;;;;;;;;24.10;39.90;;;;;;5064765;28;19921;-62
2023/01/05 13:24:02;;;;;;;;;;;24.10;39.90;;;;;;5059210;28;20023;-67
2023/01/05 13:26:30;;;;;;;;;;;24.10;40.00;;;;;;5071378;28;19928;-66
2023/01/05 13:29:03;;;;;;;;;;;24.10;39.90;;;;;;5066458;28;19920;-66
2023/01/05 13:31:40;;;;;;;;;;;24.10;39.90;;;;;;5065702;28;19936;-65
2023/01/05 13:34:21;;;;;;;;;;;24.10;40.00;;;;;;5062016;28;19929;-64
2023/01/05 13:37:08;;;;;;;;;;;24.10;40.00;;;;;;5072785;28;20348;-65
2023/01/05 13:39:53;;;;;;;;;;;24.00;40.00;;;;;;5063835;28;19963;-64
2023/01/05 13:42:40;;;;;;;;;;;24.00;40.00;;;;;;5059140;28;19928;-64
2023/01/05 13:45:27;;;;;;;;;;;24.00;40.00;;;;;;5045066;28;20067;-65
2023/01/05 13:48:09;;;;;;;;;;;24.00;40.00;;;;;;5056803;28;20015;-63
2023/01/05 13:50:58;;;;;;;;;;;24.00;40.00;;;;;;5051601;28;19964;-65
2023/01/05 13:53:26;;;;;;;;;;;24.00;40.00;;;;;;5038990;28;20269;-64
2023/01/05 13:55:58;;;;;;;;;;;24.00;40.10;;;;;;5058958;28;19972;-65
2023/01/05 13:58:33;;;;;;;;;;;23.90;40.10;;;;;;5063709;28;20284;-63
2023/01/05 14:01:01;;;;;;;;;;;24.00;40.20;;;;;;5065393;28;20018;-63
2023/01/05 14:03:31;;;;;;;;;;;24.00;40.30;;;;;;5061087;28;19921;-65
2023/01/05 14:06:01;;;;;;;;;;;23.90;40.20;;;;;;5063598;28;19926;-63
2023/01/05 14:08:31;;;;;;;;;;;23.90;40.30;;;;;;5065116;28;19920;-66
2023/01/05 14:11:10;;;;;;;;;;;23.90;40.40;;;;;;5058703;28;19924;-66
2023/01/05 14:13:45;;;;;;;;;;;23.90;40.40;;;;;;5058071;28;19928;-65
2023/01/05 14:16:32;;;;;;;;;;;23.90;40.40;;;;;;5061265;28;20696;-64
2023/01/05 14:19:18;;;;;;;;;;;23.90;40.40;;;;;;5065182;28;19928;-64
2023/01/05 14:22:00;;;;;;;;;;;23.90;41.00;;;;;;5066047;28;19967;-63
2023/01/05 14:24:32;;;;;;;;;;;23.90;40.40;;;;;;5040848;28;20059;-67
2023/01/05 14:27:05;;;;;;;;;;;23.90;40.40;;;;;;5058138;28;20360;-63
2023/01/05 14:29:52;;;;;;;;;;;23.80;40.50;;;;;;5061463;28;19962;-63
2023/01/05 14:32:33;;;;;;;;;;;23.80;40.60;;;;;;5062451;28;20019;-65
2023/01/05 14:35:04;;;;;;;;;;;23.80;40.70;;;;;;5061795;28;19921;-64
2023/01/05 14:37:37;;;;;;;;;;;23.80;40.70;;;;;;5066958;28;19959;-65
2023/01/05 14:40:14;;;;;;;;;;;23.80;40.80;;;;;;5062606;28;20039;-64
2023/01/05 14:42:45;;;;;;;;;;;23.80;41.00;;;;;;5058862;28;19958;-72
2023/01/05 14:45:27;;;;;;;;;;;23.80;41.00;;;;;;5042998;28;20023;-70
2023/01/05 14:47:55;;;;;;;;;;;23.80;41.00;;;;;;5065965;28;19932;-68
2023/01/05 14:50:34;;;;;;;;;;;23.80;41.10;;;;;;5064476;28;19964;-68
2023/01/05 14:53:11;;;;;;;;;;;23.80;41.10;;;;;;5059853;28;19951;-65
2023/01/05 14:55:40;;;;;;;;;;;23.80;41.10;;;;;;5059945;28;19964;-64
2023/01/05 14:58:13;;;;;;;;;;;23.80;41.10;;;;;;5057886;28;19940;-68
2023/01/05 15:00:47;;;;;;;;;;;23.80;41.20;;;;;;5057115;28;20015;-69
2023/01/05 15:03:29;;;;;;;;;;;23.80;41.10;;;;;;5068078;28;19931;-67
2023/01/05 15:05:58;;;;;;;;;;;23.80;41.20;;;;;;5042827;28;19932;-66
2023/01/05 15:08:46;;;;;;;;;;;23.90;41.20;;;;;;5062396;28;19928;-67
2023/01/05 15:11:33;;;;;;;;;;;23.90;41.20;;;;;;5062491;28;19952;-68
2023/01/05 15:17:07;;;;;;;;;;;23.90;41.40;;;;;;5058997;28;19935;-63
2023/01/05 15:19:54;;;;;;;;;;;23.80;41.50;;;;;;5064231;28;19929;-66